createdAt,value
2019-05-18T00:00:56.162Z,100180.45
2019-05-18T00:02:00.686Z,100182.59
2019-05-18T00:03:06.098Z,100181.69
2019-05-18T00:04:10.617Z,100180.91
2019-05-18T00:05:15.908Z,100182.27
2019-05-18T00:06:20.403Z,100184.54
2019-05-18T00:07:25.376Z,100178.88
2019-05-18T00:08:29.806Z,100178.02
2019-05-18T00:09:34.941Z,100179.41
2019-05-18T00:10:39.367Z,100174.64
2019-05-18T00:11:44.692Z,100180.48
2019-05-18T00:12:49.187Z,100179.27
2019-05-18T00:13:54.165Z,100180.59
2019-05-18T00:14:58.613Z,100177.50
2019-05-18T00:16:03.949Z,100178.00
2019-05-18T00:17:23.168Z,100172.69
2019-05-18T00:18:15.408Z,100170.05
2019-05-18T00:19:20.138Z,100173.90
2019-05-18T00:20:25.129Z,100171.77
2019-05-18T00:21:29.541Z,100170.22
2019-05-18T00:22:34.589Z,100175.06
2019-05-18T00:23:39.018Z,100175.06
2019-05-18T00:24:44.108Z,100176.92
2019-05-18T00:25:48.579Z,100177.45
2019-05-18T00:26:55.183Z,100174.50
2019-05-18T00:27:59.679Z,100175.89
2019-05-18T00:29:05.157Z,100176.81
2019-05-18T00:30:11.405Z,100175.00
2019-05-18T00:31:16.838Z,100174.57
2019-05-18T00:32:21.762Z,100182.08
2019-05-18T00:33:26.812Z,100182.97
2019-05-18T00:34:31.348Z,100177.81
2019-05-18T00:35:36.631Z,100179.63
2019-05-18T00:36:41.346Z,100181.83
2019-05-18T00:37:46.695Z,100180.14
2019-05-18T00:38:51.122Z,100180.52
2019-05-18T00:39:56.124Z,100179.94
2019-05-18T00:41:00.547Z,100178.20
2019-05-18T00:42:05.669Z,100178.70
2019-05-18T00:43:11.597Z,100177.94
2019-05-18T00:44:16.578Z,100179.13
2019-05-18T00:45:21.160Z,100176.17
2019-05-18T00:46:26.143Z,100177.49
2019-05-18T00:47:40.914Z,100169.17
2019-05-18T00:48:37.238Z,100170.48
2019-05-18T00:49:41.679Z,100173.55
2019-05-18T00:50:46.662Z,100174.01
2019-05-18T00:51:51.159Z,100171.05
2019-05-18T00:52:56.518Z,100172.05
2019-05-18T00:54:01.330Z,100175.95
2019-05-18T00:55:08.785Z,100173.47
2019-05-18T00:56:13.196Z,100177.56
2019-05-18T00:57:18.199Z,100170.86
2019-05-18T00:58:22.621Z,100173.09
2019-05-18T00:59:27.677Z,100174.36
2019-05-18T01:00:32.121Z,100170.84
2019-05-18T01:01:37.172Z,100168.66
2019-05-18T01:02:41.970Z,100164.83
2019-05-18T01:03:46.942Z,100169.67
2019-05-18T01:04:51.384Z,100162.64
2019-05-18T01:05:56.376Z,100163.53
2019-05-18T01:07:02.010Z,100164.58
2019-05-18T01:08:07.058Z,100162.94
2019-05-18T01:09:11.552Z,100168.20
2019-05-18T01:10:17.189Z,100165.63
2019-05-18T01:11:21.748Z,100158.19
2019-05-18T01:12:26.729Z,100159.23
2019-05-18T01:13:31.225Z,100161.44
2019-05-18T01:14:36.203Z,100159.80
2019-05-18T01:15:40.713Z,100167.67
2019-05-18T01:16:45.758Z,100165.93
2019-05-18T01:17:57.363Z,100165.04
2019-05-18T01:18:56.864Z,100164.68
2019-05-18T01:20:01.447Z,100165.93
2019-05-18T01:21:06.494Z,100165.55
2019-05-18T01:22:11.249Z,100169.13
2019-05-18T01:23:16.257Z,100168.28
2019-05-18T01:24:20.662Z,100166.87
2019-05-18T01:25:25.932Z,100158.16
2019-05-18T01:26:30.776Z,100160.45
2019-05-18T01:27:35.774Z,100154.33
2019-05-18T01:28:40.180Z,100150.93
2019-05-18T01:29:46.624Z,100156.08
2019-05-18T01:30:51.138Z,100150.88
2019-05-18T01:31:56.126Z,100158.72
2019-05-18T01:33:00.551Z,100154.50
2019-05-18T01:34:05.670Z,100157.73
2019-05-18T01:35:11.120Z,100154.67
2019-05-18T01:36:16.099Z,100155.99
2019-05-18T01:37:20.526Z,100156.48
2019-05-18T01:38:25.574Z,100161.02
2019-05-18T01:39:31.508Z,100156.25
2019-05-18T01:40:36.508Z,100158.41
2019-05-18T01:41:41.389Z,100153.48
2019-05-18T01:42:46.367Z,100152.54
2019-05-18T01:43:50.790Z,100154.45
2019-05-18T01:44:55.783Z,100151.45
2019-05-18T01:46:00.296Z,100156.70
2019-05-18T01:47:05.819Z,100154.34
2019-05-18T01:48:14.288Z,100154.34
2019-05-18T01:49:16.948Z,100152.11
2019-05-18T01:50:21.458Z,100158.28
2019-05-18T01:51:26.817Z,100155.34
2019-05-18T01:52:31.244Z,100162.02
2019-05-18T01:53:36.223Z,100166.88
2019-05-18T01:54:40.726Z,100163.49
2019-05-18T01:55:45.878Z,100164.38
2019-05-18T01:56:50.289Z,100161.91
2019-05-18T01:57:55.631Z,100163.27
2019-05-18T01:59:00.050Z,100161.52
2019-05-18T02:00:07.228Z,100162.39
2019-05-18T02:01:11.633Z,100158.55
2019-05-18T02:02:16.958Z,100157.79
2019-05-18T02:03:21.672Z,100160.58
2019-05-18T02:04:26.651Z,100160.98
2019-05-18T02:05:31.110Z,100164.03
2019-05-18T02:06:36.152Z,100168.61
2019-05-18T02:07:40.905Z,100165.13
2019-05-18T02:08:45.850Z,100170.42
2019-05-18T02:09:50.297Z,100146.49
2019-05-18T02:10:55.315Z,100173.47
2019-05-18T02:11:59.730Z,100173.48
2019-05-18T02:13:05.053Z,100173.14
2019-05-18T02:14:09.709Z,100175.38
2019-05-18T02:15:16.296Z,100176.30
2019-05-18T02:16:20.734Z,100177.23
2019-05-18T02:17:25.771Z,100172.52
2019-05-18T02:18:30.193Z,100176.94
2019-05-18T02:19:35.503Z,100173.91
2019-05-18T02:20:40.026Z,100175.66
2019-05-18T02:21:45.450Z,100175.28
2019-05-18T02:22:49.866Z,100175.28
2019-05-18T02:23:54.914Z,100177.56
2019-05-18T02:24:59.333Z,100175.81
2019-05-18T02:26:04.328Z,100171.48
2019-05-18T02:27:09.819Z,100171.00
2019-05-18T02:28:14.872Z,100174.94
2019-05-18T02:29:20.634Z,100174.59
2019-05-18T02:30:25.678Z,100175.91
2019-05-18T02:31:30.121Z,100175.91
2019-05-18T02:32:35.109Z,100178.58
2019-05-18T02:33:39.529Z,100179.55
2019-05-18T02:34:44.497Z,100158.34
2019-05-18T02:35:48.917Z,100158.34
2019-05-18T02:36:53.978Z,100185.19
2019-05-18T02:38:16.944Z,100182.56
2019-05-18T02:39:22.226Z,100182.56
2019-05-18T02:40:26.744Z,100184.80
2019-05-18T02:41:31.877Z,100184.70
2019-05-18T02:42:36.449Z,100182.12
2019-05-18T02:43:41.520Z,100181.73
2019-05-18T02:44:45.955Z,100177.80
2019-05-18T02:45:50.902Z,100177.80
2019-05-18T02:46:55.662Z,100160.09
2019-05-18T02:48:00.647Z,100173.52
2019-05-18T02:49:05.509Z,100168.70
2019-05-18T02:50:10.728Z,100171.42
2019-05-18T02:51:15.161Z,100164.02
2019-05-18T02:52:20.491Z,100168.44
2019-05-18T02:53:24.906Z,100165.95
2019-05-18T02:54:29.882Z,100167.71
2019-05-18T02:55:34.361Z,100161.14
2019-05-18T02:56:39.359Z,100164.78
2019-05-18T02:57:43.780Z,100166.92
2019-05-18T02:58:48.822Z,100162.06
2019-05-18T02:59:53.247Z,100162.06
2019-05-18T03:00:58.288Z,100159.44
2019-05-18T03:02:02.735Z,100160.77
2019-05-18T03:03:07.774Z,100144.76
2019-05-18T03:04:12.274Z,100159.58
2019-05-18T03:05:20.342Z,100146.72
2019-05-18T03:06:24.836Z,100164.00
2019-05-18T03:07:29.883Z,100140.95
2019-05-18T03:08:34.377Z,100150.39
2019-05-18T03:09:39.768Z,100168.19
2019-05-18T03:10:44.261Z,100147.46
2019-05-18T03:11:49.399Z,100147.46
2019-05-18T03:12:53.826Z,100160.41
2019-05-18T03:13:58.947Z,100162.55
2019-05-18T03:15:03.625Z,100157.52
2019-05-18T03:16:08.723Z,100140.64
2019-05-18T03:17:13.158Z,100140.64
2019-05-18T03:18:18.136Z,100157.78
2019-05-18T03:19:22.629Z,100157.78
2019-05-18T03:20:27.625Z,100144.48
2019-05-18T03:21:32.211Z,100144.48
2019-05-18T03:22:37.343Z,100158.75
2019-05-18T03:23:42.965Z,100151.61
2019-05-18T03:24:47.936Z,100148.16
2019-05-18T03:25:52.364Z,100151.61
2019-05-18T03:26:57.418Z,100151.61
2019-05-18T03:28:01.843Z,100164.12
2019-05-18T03:29:06.820Z,100163.20
2019-05-18T03:30:11.678Z,100160.59
2019-05-18T03:31:18.228Z,100160.59
2019-05-18T03:32:22.700Z,100164.52
2019-05-18T03:33:30.034Z,100161.50
2019-05-18T03:34:33.875Z,100161.50
2019-05-18T03:35:38.847Z,100160.23
2019-05-18T03:36:43.367Z,100160.23
2019-05-18T03:37:48.408Z,100142.52
2019-05-18T03:38:52.830Z,100151.13
2019-05-18T03:39:57.807Z,100157.12
2019-05-18T03:41:02.374Z,100157.12
2019-05-18T03:42:07.367Z,100138.85
2019-05-18T03:43:11.792Z,100157.87
2019-05-18T03:44:16.778Z,100142.22
2019-05-18T03:45:21.291Z,100165.61
2019-05-18T03:46:26.279Z,100165.61
2019-05-18T03:47:30.720Z,100163.47
2019-05-18T03:48:35.712Z,100158.61
2019-05-18T03:49:40.118Z,100158.61
2019-05-18T03:50:45.101Z,100163.81
2019-05-18T03:51:49.547Z,100163.81
2019-05-18T03:52:54.949Z,100164.16
2019-05-18T03:53:59.384Z,100164.16
2019-05-18T03:55:04.904Z,100168.44
2019-05-18T03:56:09.331Z,100151.34
2019-05-18T03:57:14.336Z,100163.84
2019-05-18T03:58:18.791Z,100148.72
2019-05-18T03:59:23.754Z,100170.30
2019-05-18T04:00:28.175Z,100163.61
2019-05-18T04:01:33.148Z,100164.73
2019-05-18T04:02:37.953Z,100162.35
2019-05-18T04:03:42.951Z,100162.35
2019-05-18T04:04:47.382Z,100150.68
2019-05-18T04:05:52.355Z,100161.27
2019-05-18T04:06:56.773Z,100161.27
2019-05-18T04:08:02.849Z,100157.62
2019-05-18T04:09:07.272Z,100156.59
2019-05-18T04:10:12.774Z,100159.10
2019-05-18T04:11:17.209Z,100152.05
2019-05-18T04:12:22.207Z,100163.27
2019-05-18T04:13:27.714Z,100159.22
2019-05-18T04:14:34.049Z,100148.59
2019-05-18T04:15:38.480Z,100143.52
2019-05-18T04:16:43.464Z,100143.52
2019-05-18T04:17:47.922Z,100144.72
2019-05-18T04:18:52.951Z,100147.23
2019-05-18T04:19:57.346Z,100148.00
2019-05-18T04:21:05.377Z,100147.38
2019-05-18T04:22:09.963Z,100145.91
2019-05-18T04:23:14.965Z,100141.40
2019-05-18T04:24:19.393Z,100141.23
2019-05-18T04:25:24.526Z,100140.29
2019-05-18T04:26:28.955Z,100138.31
2019-05-18T04:27:34.031Z,100120.02
2019-05-18T04:28:38.768Z,100138.44
2019-05-18T04:29:43.795Z,100136.13
2019-05-18T04:30:48.219Z,100133.88
2019-05-18T04:31:53.274Z,100137.96
2019-05-18T04:32:57.716Z,100135.13
2019-05-18T04:34:02.696Z,100140.64
2019-05-18T04:35:07.887Z,100138.71
2019-05-18T04:36:12.850Z,100137.95
2019-05-18T04:37:17.552Z,100137.45
2019-05-18T04:38:22.550Z,100141.27
2019-05-18T04:39:26.974Z,100142.06
2019-05-18T04:40:32.275Z,100143.17
2019-05-18T04:41:36.702Z,100142.22
2019-05-18T04:42:41.697Z,100143.27
2019-05-18T04:43:47.092Z,100144.02
2019-05-18T04:44:52.367Z,100144.67
2019-05-18T04:45:56.866Z,100144.86
2019-05-18T04:47:01.849Z,100141.56
2019-05-18T04:48:06.291Z,100137.97
2019-05-18T04:49:11.271Z,100137.27
2019-05-18T04:50:16.147Z,100134.92
2019-05-18T04:51:21.122Z,100137.36
2019-05-18T04:52:25.550Z,100132.30
2019-05-18T04:53:30.545Z,100132.22
2019-05-18T04:54:34.968Z,100132.24
2019-05-18T04:55:39.957Z,100132.06
2019-05-18T04:56:44.391Z,100130.98
2019-05-18T04:57:49.727Z,100132.42
2019-05-18T04:58:54.150Z,100123.52
2019-05-18T04:59:59.138Z,100130.97
2019-05-18T05:01:03.558Z,100129.78
2019-05-18T05:02:08.588Z,100127.61
2019-05-18T05:03:13.584Z,100122.00
2019-05-18T05:04:18.558Z,100128.45
2019-05-18T05:05:22.985Z,100125.55
2019-05-18T05:06:27.969Z,100126.45
2019-05-18T05:07:32.391Z,100131.11
2019-05-18T05:08:37.441Z,100134.33
2019-05-18T05:09:42.200Z,100131.05
2019-05-18T05:10:47.564Z,100131.82
2019-05-18T05:11:51.984Z,100131.75
2019-05-18T05:12:56.987Z,100133.75
2019-05-18T05:14:01.511Z,100139.92
2019-05-18T05:15:07.117Z,100133.71
2019-05-18T05:16:12.185Z,100140.08
2019-05-18T05:17:17.162Z,100136.23
2019-05-18T05:18:21.630Z,100143.72
2019-05-18T05:19:26.589Z,100140.11
2019-05-18T05:20:31.017Z,100139.97
2019-05-18T05:21:36.080Z,100135.21
2019-05-18T05:22:40.493Z,100139.03
2019-05-18T05:23:45.558Z,100137.63
2019-05-18T05:24:50.131Z,100138.21
2019-05-18T05:25:55.189Z,100131.03
2019-05-18T05:26:59.616Z,100132.92
2019-05-18T05:28:05.126Z,100127.33
2019-05-18T05:29:09.878Z,100125.67
2019-05-18T05:30:15.247Z,100125.62
2019-05-18T05:31:19.773Z,100125.27
2019-05-18T05:32:24.766Z,100129.66
2019-05-18T05:33:29.249Z,100127.91
2019-05-18T05:34:34.298Z,100134.95
2019-05-18T05:35:38.721Z,100133.61
2019-05-18T05:36:43.698Z,100139.06
2019-05-18T05:37:49.008Z,100134.41
2019-05-18T05:38:54.609Z,100138.13
2019-05-18T05:39:59.843Z,100136.92
2019-05-18T05:41:05.391Z,100136.77
2019-05-18T05:42:10.289Z,100137.69
2019-05-18T05:43:15.820Z,100130.81
2019-05-18T05:44:21.753Z,100141.66
2019-05-18T05:45:27.070Z,100146.71
2019-05-18T05:46:31.573Z,100145.22
2019-05-18T05:47:36.819Z,100138.17
2019-05-18T05:48:41.496Z,100142.45
2019-05-18T05:49:46.486Z,100138.46
2019-05-18T05:50:51.362Z,100140.94
2019-05-18T05:51:56.406Z,100138.46
2019-05-18T05:53:00.830Z,100146.66
2019-05-18T05:54:06.786Z,100139.11
2019-05-18T05:55:11.351Z,100149.45
2019-05-18T05:56:16.652Z,100147.39
2019-05-18T05:57:21.364Z,100151.56
2019-05-18T05:58:27.211Z,100151.67
2019-05-18T05:59:32.077Z,100152.79
2019-05-18T06:00:37.444Z,100148.37
2019-05-18T06:01:42.015Z,100154.39
2019-05-18T06:02:47.067Z,100152.07
2019-05-18T06:03:51.999Z,100161.16
2019-05-18T06:04:57.534Z,100152.09
2019-05-18T06:06:02.261Z,100154.02
2019-05-18T06:07:07.795Z,100154.91
2019-05-18T06:08:12.492Z,100152.94
2019-05-18T06:09:17.770Z,100155.64
2019-05-18T06:10:22.344Z,100158.22
2019-05-18T06:11:27.587Z,100154.39
2019-05-18T06:12:32.416Z,100152.75
2019-05-18T06:13:37.649Z,100155.75
2019-05-18T06:14:43.462Z,100155.86
2019-05-18T06:15:48.821Z,100153.59
2019-05-18T06:16:54.948Z,100157.45
2019-05-18T06:18:00.112Z,100164.14
2019-05-18T06:19:04.954Z,100157.20
2019-05-18T06:20:10.620Z,100161.92
2019-05-18T06:21:15.649Z,100158.10
2019-05-18T06:22:21.135Z,100165.72
2019-05-18T06:23:25.650Z,100158.73
2019-05-18T06:24:30.817Z,100156.39
2019-05-18T06:25:35.331Z,100157.52
2019-05-18T06:26:40.359Z,100163.59
2019-05-18T06:27:45.069Z,100170.38
2019-05-18T06:28:50.083Z,100166.25
2019-05-18T06:29:54.537Z,100162.66
2019-05-18T06:30:59.799Z,100162.70
2019-05-18T06:32:04.294Z,100158.91
2019-05-18T06:33:09.677Z,100163.45
2019-05-18T06:34:14.119Z,100165.64
2019-05-18T06:35:19.377Z,100165.56
2019-05-18T06:36:23.937Z,100165.55
2019-05-18T06:37:28.946Z,100165.70
2019-05-18T06:38:33.437Z,100159.47
2019-05-18T06:39:43.646Z,100161.43
2019-05-18T06:40:48.355Z,100158.69
2019-05-18T06:41:53.479Z,100158.31
2019-05-18T06:42:57.987Z,100154.56
2019-05-18T06:44:03.421Z,100158.63
2019-05-18T06:45:08.411Z,100155.66
2019-05-18T06:46:13.761Z,100155.56
2019-05-18T06:47:18.799Z,100149.80
2019-05-18T06:48:23.836Z,100152.05
2019-05-18T06:49:28.353Z,100156.81
2019-05-18T06:50:33.471Z,100157.68
2019-05-18T06:51:38.045Z,100150.90
2019-05-18T06:52:43.128Z,100151.34
2019-05-18T06:53:47.629Z,100150.30
2019-05-18T06:54:52.650Z,100151.63
2019-05-18T06:55:58.466Z,100146.92
2019-05-18T06:57:04.123Z,100147.81
2019-05-18T06:58:09.820Z,100145.14
2019-05-18T06:59:16.835Z,100145.20
2019-05-18T07:00:21.415Z,100149.80
2019-05-18T07:01:26.405Z,100146.97
2019-05-18T07:02:30.883Z,100144.47
2019-05-18T07:03:35.946Z,100139.86
2019-05-18T07:04:40.388Z,100140.56
2019-05-18T07:05:45.659Z,100133.36
2019-05-18T07:06:50.083Z,100136.13
2019-05-18T07:07:55.064Z,100132.29
2019-05-18T07:08:59.486Z,100132.09
2019-05-18T07:10:05.927Z,100128.30
2019-05-18T07:11:10.353Z,100135.77
2019-05-18T07:12:15.341Z,100135.47
2019-05-18T07:13:19.832Z,100135.58
2019-05-18T07:14:26.142Z,100135.56
2019-05-18T07:15:30.984Z,100132.55
2019-05-18T07:16:36.042Z,100128.36
2019-05-18T07:17:40.462Z,100124.70
2019-05-18T07:18:45.446Z,100130.23
2019-05-18T07:19:49.894Z,100130.77
2019-05-18T07:20:54.872Z,100129.02
2019-05-18T07:21:59.546Z,100127.08
2019-05-18T07:23:04.690Z,100125.48
2019-05-18T07:24:09.113Z,100120.97
2019-05-18T07:25:14.518Z,100126.88
2019-05-18T07:26:19.005Z,100125.80
2019-05-18T07:27:23.986Z,100121.50
2019-05-18T07:28:28.483Z,100115.97
2019-05-18T07:29:33.734Z,100119.48
2019-05-18T07:30:38.181Z,100120.15
2019-05-18T07:31:43.163Z,100112.26
2019-05-18T07:32:47.592Z,100120.38
2019-05-18T07:33:52.591Z,100113.33
2019-05-18T07:34:57.036Z,100117.75
2019-05-18T07:36:02.012Z,100113.95
2019-05-18T07:37:06.439Z,100108.67
2019-05-18T07:38:11.420Z,100105.47
2019-05-18T07:39:16.114Z,100111.12
2019-05-18T07:40:21.199Z,100109.78
2019-05-18T07:41:25.962Z,100108.14
2019-05-18T07:42:30.937Z,100111.80
2019-05-18T07:43:35.638Z,100100.75
2019-05-18T07:44:41.585Z,100104.66
2019-05-18T07:45:46.030Z,100103.30
2019-05-18T07:46:51.081Z,100106.28
2019-05-18T07:47:55.576Z,100105.06
2019-05-18T07:49:00.623Z,100100.18
2019-05-18T07:50:06.902Z,100103.20
2019-05-18T07:51:11.962Z,100103.66
2019-05-18T07:52:17.347Z,100098.23
2019-05-18T07:53:22.701Z,100100.63
2019-05-18T07:54:27.401Z,100103.12
2019-05-18T07:55:32.403Z,100099.18
2019-05-18T07:56:37.200Z,100098.40
2019-05-18T07:57:42.161Z,100099.91
2019-05-18T07:58:46.590Z,100099.75
2019-05-18T07:59:52.538Z,100106.29
2019-05-18T08:00:56.983Z,100093.09
2019-05-18T08:02:01.975Z,100094.21
2019-05-18T08:03:06.463Z,100099.54
2019-05-18T08:04:11.715Z,100097.56
2019-05-18T08:05:16.295Z,100102.47
2019-05-18T08:06:21.547Z,100091.89
2019-05-18T08:07:25.978Z,100092.94
2019-05-18T08:08:30.957Z,100093.22
2019-05-18T08:09:35.404Z,100085.33
2019-05-18T08:10:43.462Z,100087.78
2019-05-18T08:11:47.005Z,100087.49
2019-05-18T08:12:52.253Z,100092.36
2019-05-18T08:13:56.685Z,100090.05
2019-05-18T08:15:01.804Z,100087.02
2019-05-18T08:16:07.560Z,100082.16
2019-05-18T08:17:12.513Z,100092.36
2019-05-18T08:18:17.003Z,100087.45
2019-05-18T08:19:21.979Z,100088.25
2019-05-18T08:20:26.407Z,100094.80
2019-05-18T08:21:31.655Z,100087.73
2019-05-18T08:22:36.078Z,100084.30
2019-05-18T08:23:41.064Z,100080.45
2019-05-18T08:24:45.558Z,100079.48
2019-05-18T08:25:50.563Z,100082.24
2019-05-18T08:26:55.256Z,100084.38
2019-05-18T08:28:00.303Z,100079.19
2019-05-18T08:29:04.795Z,100080.18
2019-05-18T08:30:10.197Z,100082.81
2019-05-18T08:31:14.633Z,100079.91
2019-05-18T08:32:19.613Z,100080.09
2019-05-18T08:33:24.057Z,100078.90
2019-05-18T08:34:29.127Z,100076.00
2019-05-18T08:35:33.938Z,100078.59
2019-05-18T08:36:38.933Z,100066.66
2019-05-18T08:37:43.416Z,100070.04
2019-05-18T08:38:48.471Z,100072.99
2019-05-18T08:39:52.886Z,100070.66
2019-05-18T08:40:57.884Z,100072.92
2019-05-18T08:42:02.389Z,100075.02
2019-05-18T08:43:07.420Z,100075.79
2019-05-18T08:44:11.896Z,100069.38
2019-05-18T08:45:17.591Z,100069.67
2019-05-18T08:46:22.102Z,100066.72
2019-05-18T08:47:27.069Z,100063.77
2019-05-18T08:48:31.492Z,100064.16
2019-05-18T08:49:36.469Z,100068.41
2019-05-18T08:50:41.263Z,100065.83
2019-05-18T08:51:46.600Z,100060.59
2019-05-18T08:52:51.018Z,100062.45
2019-05-18T08:53:56.118Z,100062.87
2019-05-18T08:55:00.534Z,100056.16
2019-05-18T08:56:05.676Z,100056.39
2019-05-18T08:57:10.117Z,100054.67
2019-05-18T08:58:15.094Z,100060.47
2019-05-18T08:59:19.825Z,100052.69
2019-05-18T09:00:25.064Z,100048.38
2019-05-18T09:01:29.874Z,100050.26
2019-05-18T09:02:34.855Z,100051.39
2019-05-18T09:03:39.342Z,100054.48
2019-05-18T09:04:44.324Z,100051.47
2019-05-18T09:05:48.756Z,100060.42
2019-05-18T09:06:53.745Z,100052.00
2019-05-18T09:07:59.139Z,100048.94
2019-05-18T09:09:05.779Z,100053.44
2019-05-18T09:10:10.734Z,100051.86
2019-05-18T09:11:15.716Z,100053.05
2019-05-18T09:12:20.461Z,100053.20
2019-05-18T09:13:25.520Z,100043.15
2019-05-18T09:14:29.937Z,100045.66
2019-05-18T09:15:34.987Z,100049.48
2019-05-18T09:16:39.504Z,100052.80
2019-05-18T09:17:44.482Z,100042.84
2019-05-18T09:18:48.905Z,100042.88
2019-05-18T09:19:54.166Z,100046.02
2019-05-18T09:20:58.596Z,100040.05
2019-05-18T09:22:03.663Z,100034.22
2019-05-18T09:23:09.041Z,100044.03
2019-05-18T09:24:14.012Z,100043.17
2019-05-18T09:25:20.013Z,100044.55
2019-05-18T09:26:24.982Z,100045.70
2019-05-18T09:27:29.591Z,100048.22
2019-05-18T09:28:34.850Z,100041.33
2019-05-18T09:29:39.260Z,100042.00
2019-05-18T09:30:44.585Z,100042.88
2019-05-18T09:31:49.327Z,100032.27
2019-05-18T09:32:54.300Z,100024.73
2019-05-18T09:33:58.726Z,100038.77
2019-05-18T09:35:04.708Z,100032.49
2019-05-18T09:36:09.404Z,100029.02
2019-05-18T09:37:14.464Z,100031.05
2019-05-18T09:38:18.883Z,100028.13
2019-05-18T09:39:23.994Z,100032.41
2019-05-18T09:40:28.418Z,100029.89
2019-05-18T09:41:33.668Z,100031.94
2019-05-18T09:42:38.117Z,100034.25
2019-05-18T09:43:43.164Z,100033.23
2019-05-18T09:44:47.583Z,100030.06
2019-05-18T09:45:52.833Z,100030.14
2019-05-18T09:46:57.337Z,100028.41
2019-05-18T09:48:02.380Z,100028.67
2019-05-18T09:49:07.010Z,100022.58
2019-05-18T09:50:12.331Z,100021.59
2019-05-18T09:51:16.760Z,100022.63
2019-05-18T09:52:21.758Z,100021.81
2019-05-18T09:53:26.176Z,100018.60
2019-05-18T09:54:31.561Z,100017.70
2019-05-18T09:55:36.295Z,100014.72
2019-05-18T09:56:41.596Z,100017.92
2019-05-18T09:57:46.053Z,100010.35
2019-05-18T09:58:51.322Z,100009.19
2019-05-18T09:59:55.729Z,100010.00
2019-05-18T10:01:00.794Z,100014.19
2019-05-18T10:02:05.368Z,100004.25
2019-05-18T10:03:10.420Z,100011.13
2019-05-18T10:04:14.901Z,100014.19
2019-05-18T10:05:21.512Z,100001.84
2019-05-18T10:06:25.978Z,100004.34
2019-05-18T10:07:30.981Z,100003.83
2019-05-18T10:08:35.391Z,99998.13
2019-05-18T10:09:40.379Z,100000.35
2019-05-18T10:10:45.064Z,100006.95
2019-05-18T10:11:51.292Z,99995.80
2019-05-18T10:12:55.804Z,100002.66
2019-05-18T10:14:00.838Z,100001.53
2019-05-18T10:15:07.295Z,100001.04
2019-05-18T10:16:12.394Z,99996.16
2019-05-18T10:17:17.107Z,99987.27
2019-05-18T10:18:22.089Z,99991.19
2019-05-18T10:19:26.533Z,99985.20
2019-05-18T10:20:31.578Z,99984.12
2019-05-18T10:21:36.064Z,99988.73
2019-05-18T10:22:53.524Z,99981.70
2019-05-18T10:23:47.233Z,99988.95
2019-05-18T10:24:52.209Z,99992.14
2019-05-18T10:25:56.977Z,99995.80
2019-05-18T10:27:03.289Z,99972.66
2019-05-18T10:28:07.773Z,99989.70
2019-05-18T10:29:12.809Z,99988.61
2019-05-18T10:30:17.582Z,99992.63
2019-05-18T10:31:22.621Z,99987.63
2019-05-18T10:32:27.427Z,99987.25
2019-05-18T10:33:32.973Z,99977.63
2019-05-18T10:34:38.862Z,99980.66
2019-05-18T10:35:44.968Z,99973.49
2019-05-18T10:36:51.978Z,99984.60
2019-05-18T10:37:58.181Z,99974.84
2019-05-18T10:39:05.118Z,99976.64
2019-05-18T10:40:13.165Z,99975.91
2019-05-18T10:41:18.517Z,99979.81
2019-05-18T10:42:24.844Z,99974.09
2019-05-18T10:43:29.597Z,99971.45
2019-05-18T10:44:34.567Z,99970.41
2019-05-18T10:45:39.006Z,99973.38
2019-05-18T10:46:44.035Z,99966.22
2019-05-18T10:47:48.603Z,99969.38
2019-05-18T10:48:53.572Z,99970.59
2019-05-18T10:49:58.010Z,99972.14
2019-05-18T10:51:05.665Z,99972.59
2019-05-18T10:52:10.267Z,99973.70
2019-05-18T10:53:27.837Z,99967.03
2019-05-18T10:54:22.640Z,99962.83
2019-05-18T10:55:27.734Z,99959.20
2019-05-18T10:56:32.311Z,99962.02
2019-05-18T10:57:37.631Z,99955.31
2019-05-18T10:58:43.110Z,99959.11
2019-05-18T10:59:48.145Z,99952.03
2019-05-18T11:00:52.631Z,99962.78
2019-05-18T11:01:57.750Z,99958.52
2019-05-18T11:03:02.391Z,99960.69
2019-05-18T11:04:07.719Z,99956.97
2019-05-18T11:05:12.572Z,99951.06
2019-05-18T11:06:18.044Z,99949.00
2019-05-18T11:07:22.765Z,99946.07
2019-05-18T11:08:27.754Z,99947.28
2019-05-18T11:09:32.160Z,99941.45
2019-05-18T11:10:37.198Z,99948.18
2019-05-18T11:11:41.612Z,99943.37
2019-05-18T11:12:47.009Z,99938.05
2019-05-18T11:13:51.420Z,99938.38
2019-05-18T11:14:56.455Z,99946.48
2019-05-18T11:16:01.149Z,99942.26
2019-05-18T11:17:06.120Z,99944.20
2019-05-18T11:18:10.922Z,99941.63
2019-05-18T11:19:16.238Z,99940.56
2019-05-18T11:20:21.172Z,99939.45
2019-05-18T11:21:26.420Z,99939.06
2019-05-18T11:22:31.030Z,99940.83
2019-05-18T11:23:44.206Z,99936.25
2019-05-18T11:24:42.171Z,99942.38
2019-05-18T11:25:47.155Z,99932.05
2019-05-18T11:26:51.563Z,99926.07
2019-05-18T11:27:56.528Z,99926.38
2019-05-18T11:29:00.971Z,99926.71
2019-05-18T11:30:08.555Z,99940.41
2019-05-18T11:31:14.342Z,99935.07
2019-05-18T11:32:19.323Z,99938.98
2019-05-18T11:33:23.846Z,99929.47
2019-05-18T11:34:28.868Z,99936.40
2019-05-18T11:35:33.555Z,99933.27
2019-05-18T11:36:38.528Z,99930.14
2019-05-18T11:37:43.008Z,99926.78
2019-05-18T11:38:48.067Z,99928.48
2019-05-18T11:39:52.824Z,99922.34
2019-05-18T11:40:57.865Z,99918.11
2019-05-18T11:42:02.281Z,99917.71
2019-05-18T11:43:07.250Z,99911.77
2019-05-18T11:44:11.682Z,99920.38
2019-05-18T11:45:19.942Z,99924.47
2019-05-18T11:46:24.380Z,99924.91
2019-05-18T11:47:29.354Z,99927.01
2019-05-18T11:48:33.791Z,99926.22
2019-05-18T11:49:38.761Z,99925.55
2019-05-18T11:50:43.176Z,99929.81
2019-05-18T11:51:49.124Z,99927.58
2019-05-18T11:52:53.620Z,99925.30
2019-05-18T11:53:58.801Z,99927.46
2019-05-18T11:55:06.335Z,99925.91
2019-05-18T11:56:11.585Z,99923.20
2019-05-18T11:57:16.154Z,99931.66
2019-05-18T11:58:21.192Z,99920.75
2019-05-18T11:59:25.623Z,99928.73
2019-05-18T12:00:31.318Z,99924.59
2019-05-18T12:01:35.869Z,99920.02
2019-05-18T12:02:41.180Z,99908.89
2019-05-18T12:03:45.887Z,99911.41
2019-05-18T12:04:50.846Z,99919.25
2019-05-18T12:05:55.256Z,99909.91
2019-05-18T12:07:01.219Z,99908.73
2019-05-18T12:08:06.774Z,99912.94
2019-05-18T12:09:11.764Z,99919.97
2019-05-18T12:10:18.580Z,99913.09
2019-05-18T12:11:23.503Z,99909.71
2019-05-18T12:12:28.222Z,99912.52
2019-05-18T12:13:33.195Z,99918.30
2019-05-18T12:14:37.623Z,99921.09
2019-05-18T12:15:42.730Z,99894.78
2019-05-18T12:16:47.445Z,99912.95
2019-05-18T12:17:52.421Z,99897.07
2019-05-18T12:18:57.646Z,99909.04
2019-05-18T12:20:02.841Z,99913.83
2019-05-18T12:21:07.916Z,99916.58
2019-05-18T12:22:12.877Z,99899.47
2019-05-18T12:23:17.632Z,99900.78
2019-05-18T12:24:22.621Z,99901.08
2019-05-18T12:25:27.026Z,99888.67